Weather History for Oscoda, MI

Change the Weather History Date:

Friday, April 12, 2013

  Actual Average Record
Temperature  
Mean Temperature 33 °F -  
Max Temperature 35 °F 48 °F 71 °F (2002)
Min Temperature 31 °F 31 °F 19 °F (2009)
Degree Days  
Heating Degree Days 32    
Moisture  
Dew Point 33 °F    
Average Humidity 96    
Maximum Humidity 100    
Minimum Humidity 90    
Precipitation  
Precipitation 0.35 in - - ()
Sea Level Pressure  
Sea Level Pressure 29.64 in    
Wind  
Wind Speed 11 mph (SE)    
Max Wind Speed 20 mph    
Max Gust Speed 29 mph    
Visibility 6 miles    
Events Rain , Snow    
Averages and records for this station are not official NWS values.
T = Trace of Precipitation, MM = Missing Value Source: NWS Daily Summary

Daily Weather History Graph

Daily Weather History Graph

Search for Another Location

Airport:

Trip Planner

Search our weather history database for the weather conditions in past years. The results will help you decide how hot, cold, wet, or windy it might be!

Date:

Astronomy

Apr. 12, 2013 Rise Set
Actual Time 6:54 AM EDT 8:14 PM EDT
Civil Twilight 6:24 AM EDT 8:45 PM EDT
Nautical Twilight 5:48 AM EDT 9:21 PM EDT
Astronomical Twilight 5:09 AM EDT 10:00 PM EDT
Moon 7:58 AM EDT (4/12) 10:50 PM EDT (4/12)
Length of Visible Light 14h 20m
Length of Day
13h 20m
Waxing Crescent, 5% of the Moon is Illuminated
Apr 12
Waxing Crescent
Apr 18
First Quarter
Apr 25
Full
May 2
Last Quarter
May 9
New

Hourly Weather History & Observations

Time (EDT) Temp. Windchill Dew Point Humidity Pressure Visibility Wind Dir Wind Speed Gust Speed Precip Events Conditions
12:13 AM 32.0 °F 20.1 °F 30.7 °F 95% 29.81 in 2.5 mi ENE 19.6 mph 27.6 mph 0.03 in Snow Light Snow
12:34 AM 32.0 °F - 30.4 °F 94% 29.79 in 2.5 mi North - - 0.06 in Snow Light Snow
12:54 AM 32.0 °F - 30.2 °F 93% 29.78 in 4.0 mi North - - 0.08 in Snow Light Snow
1:14 AM 32.0 °F - 30.7 °F 95% 29.78 in 2.0 mi North - - 0.02 in Snow Light Snow
1:34 AM 32.0 °F 22.1 °F 30.9 °F 96% 29.78 in 3.0 mi ENE 13.8 mph 20.7 mph 0.04 in Snow Light Snow
1:54 AM 32.0 °F - 31.1 °F 96% 29.75 in 2.0 mi North - - 0.07 in Snow Light Snow
2:14 AM 31.8 °F - 30.7 °F 96% 29.73 in 2.5 mi North - - 0.01 in Snow Light Snow
2:34 AM 31.6 °F 20.4 °F 30.6 °F 96% 29.73 in 1.8 mi ENE 17.3 mph 28.8 mph 0.01 in Snow Light Snow
2:54 AM 31.6 °F 20.7 °F 30.7 °F 96% 29.71 in 1.8 mi ENE 16.1 mph 28.8 mph 0.03 in Snow Light Snow
3:14 AM 31.6 °F 20.4 °F 30.7 °F 96% 29.70 in 1.8 mi ENE 17.3 mph 23.0 mph 0.01 in Snow Light Snow
3:34 AM 31.6 °F 21.2 °F 30.7 °F 96% 29.70 in 1.8 mi ENE 15.0 mph 20.7 mph 0.03 in Snow Light Snow
3:54 AM 31.5 °F 20.5 °F 30.7 °F 97% 29.70 in 1.8 mi ENE 16.1 mph 20.7 mph 0.06 in Snow Light Snow
4:14 AM 31.6 °F 21.2 °F 30.9 °F 97% 29.70 in 1.2 mi NE 15.0 mph - 0.01 in Snow Light Snow
4:34 AM 31.8 °F 21.4 °F 31.1 °F 97% 29.69 in 1.5 mi NE 15.0 mph 25.3 mph 0.04 in Snow Light Snow
4:54 AM 31.8 °F 21.4 °F 31.1 °F 97% 29.68 in 1.5 mi NE 15.0 mph 18.4 mph 0.07 in Snow Light Snow
5:14 AM 32.0 °F 20.8 °F 31.5 °F 98% 29.67 in 1.2 mi ENE 17.3 mph 25.3 mph 0.02 in Snow Light Snow
5:34 AM 32.0 °F 21.6 °F 31.8 °F 99% 29.64 in 4.0 mi ENE 15.0 mph 28.8 mph 0.03 in Snow Light Snow
5:54 AM 32.0 °F - 32.0 °F 100% 29.64 in 7.0 mi North - - 0.04 in   Overcast
6:14 AM 32.0 °F 21.6 °F 32.0 °F 100% 29.62 in 7.0 mi ENE 15.0 mph 20.7 mph N/A   Overcast
6:34 AM 32.0 °F 23.0 °F 31.8 °F 99% 29.62 in 3.0 mi ENE 11.5 mph - N/A Snow Light Snow
6:54 AM 32.0 °F 22.1 °F 31.8 °F 99% 29.62 in 5.0 mi ENE 13.8 mph - N/A   Overcast
7:14 AM 32.0 °F 23.6 °F 31.8 °F 99% 29.60 in 10.0 mi ENE 10.4 mph 20.7 mph N/A   Overcast
7:34 AM 32.2 °F - 31.6 °F 98% 29.59 in 10.0 mi North - - N/A   Overcast
7:54 AM 32.2 °F 24.4 °F 31.3 °F 96% 29.59 in 7.0 mi East 9.2 mph - N/A   Overcast
8:14 AM 32.4 °F - 31.6 °F 97% 29.57 in 10.0 mi North - - N/A   Overcast
8:34 AM 32.4 °F 24.6 °F 31.8 °F 98% 29.58 in 10.0 mi East 9.2 mph - N/A   Overcast
8:54 AM 32.5 °F 24.8 °F 31.8 °F 97% 29.59 in 10.0 mi East 9.2 mph - N/A   Overcast
9:14 AM 32.5 °F - 31.6 °F 96% 29.59 in 10.0 mi North - - N/A   Overcast
9:34 AM 32.5 °F 24.8 °F 31.5 °F 96% 29.57 in 10.0 mi East 9.2 mph - N/A   Overcast
9:54 AM 32.5 °F - 31.5 °F 96% 29.57 in 10.0 mi North - - N/A   Overcast
10:14 AM 32.9 °F 25.3 °F 31.6 °F 95% 29.57 in 10.0 mi East 9.2 mph - N/A   Overcast
10:34 AM 32.9 °F 26.7 °F 31.8 °F 96% 29.57 in 10.0 mi East 6.9 mph - N/A   Overcast
10:54 AM 32.9 °F 25.3 °F 32.0 °F 96% 29.57 in 5.0 mi East 9.2 mph - N/A   Overcast
11:14 AM 33.1 °F 28.7 °F 32.0 °F 96% 29.58 in 5.0 mi East 4.6 mph - N/A   Overcast
11:34 AM 33.1 °F 28.7 °F 32.0 °F 96% 29.58 in 2.5 mi East 4.6 mph - N/A   Overcast
11:54 AM 33.1 °F 30.0 °F 32.0 °F 96% 29.59 in 1.8 mi East 3.5 mph - N/A   Overcast
12:14 PM 33.1 °F 30.0 °F 32.2 °F 96% 29.59 in 1.8 mi East 3.5 mph - N/A   Overcast
12:34 PM 33.1 °F 30.0 °F 32.4 °F 97% 29.59 in 1.5 mi East 3.5 mph - N/A   Overcast
12:54 PM 33.4 °F 29.1 °F 32.7 °F 97% 29.59 in 1.5 mi East 4.6 mph - N/A   Overcast
1:13 PM 33.8 °F - 32.9 °F 96% 29.59 in 1.5 mi Calm Calm - N/A   Overcast
1:34 PM 33.8 °F - 32.9 °F 96% 29.58 in 1.8 mi Calm Calm - N/A   Overcast
1:54 PM 33.3 °F - 32.9 °F 99% 29.59 in 1.5 mi Calm Calm - N/A   Overcast
2:13 PM 33.8 °F - 33.3 °F 98% 29.58 in 1.5 mi Calm Calm - N/A   Overcast
2:34 PM 34.5 °F - 33.6 °F 97% 29.59 in 2.5 mi Calm Calm - N/A Snow Light Snow
2:54 PM 34.3 °F 31.4 °F 33.3 °F 96% 29.59 in 5.0 mi WSW 3.5 mph - N/A Snow Light Snow
3:14 PM 33.8 °F 28.6 °F 32.9 °F 96% 29.60 in 10.0 mi WSW 5.8 mph - N/A Snow Light Snow
3:34 PM 34.7 °F 29.6 °F 33.3 °F 94% 29.61 in 10.0 mi WSW 5.8 mph - N/A Snow Light Snow
3:53 PM 34.7 °F 30.6 °F 32.9 °F 93% 29.61 in 10.0 mi WSW 4.6 mph - N/A Rain Light Rain
4:14 PM 34.7 °F 30.6 °F 32.9 °F 93% 29.60 in 10.0 mi WSW 4.6 mph - N/A Rain Light Rain
4:34 PM 35.2 °F 32.4 °F 33.3 °F 92% 29.60 in 10.0 mi WSW 3.5 mph - N/A   Overcast
4:53 PM 35.4 °F 30.5 °F 33.1 °F 91% 29.61 in 10.0 mi SW 5.8 mph - N/A   Overcast
5:14 PM 35.2 °F 31.2 °F 33.1 °F 92% 29.61 in 10.0 mi WSW 4.6 mph - N/A   Overcast
5:34 PM 35.6 °F 31.7 °F 32.9 °F 90% 29.62 in 10.0 mi WSW 4.6 mph - N/A   Overcast
5:53 PM 35.4 °F 30.5 °F 33.1 °F 91% 29.63 in 10.0 mi WSW 5.8 mph - N/A   Overcast
6:14 PM 35.4 °F 31.5 °F 33.8 °F 94% 29.63 in 10.0 mi SW 4.6 mph - N/A   Overcast
6:34 PM 35.2 °F 30.3 °F 33.8 °F 94% 29.64 in 5.0 mi WSW 5.8 mph - N/A   Overcast
6:53 PM 35.1 °F 31.0 °F 34.0 °F 96% 29.64 in 4.0 mi WSW 4.6 mph - N/A   Overcast
7:14 PM 34.9 °F 32.0 °F 34.0 °F 97% 29.64 in 3.0 mi WSW 3.5 mph - N/A Rain Light Rain
7:34 PM 34.7 °F - 34.2 °F 98% 29.64 in 4.0 mi Calm Calm - N/A   Overcast
7:53 PM 35.1 °F 32.2 °F 34.7 °F 99% 29.64 in 5.0 mi South 3.5 mph - N/A   Overcast
8:14 PM 35.2 °F 32.4 °F 34.7 °F 98% 29.64 in 7.0 mi SSW 3.5 mph - N/A   Overcast
8:34 PM 35.1 °F 31.0 °F 34.7 °F 99% 29.65 in 10.0 mi South 4.6 mph - N/A   Overcast
8:53 PM 35.2 °F 32.4 °F 34.7 °F 98% 29.65 in 10.0 mi South 3.5 mph - N/A   Overcast
9:14 PM 35.2 °F 28.8 °F 34.7 °F 98% 29.64 in 7.0 mi South 8.1 mph - N/A   Overcast
9:34 PM 35.1 °F 31.0 °F 34.7 °F 99% 29.65 in 5.0 mi South 4.6 mph - N/A   Overcast
9:53 PM 35.1 °F 31.0 °F 34.7 °F 99% 29.65 in 7.0 mi SSW 4.6 mph - N/A   Overcast
10:14 PM 35.1 °F 32.2 °F 34.7 °F 99% 29.65 in 7.0 mi SSW 3.5 mph - N/A   Overcast
10:34 PM 34.7 °F 30.6 °F 34.3 °F 99% 29.65 in 5.0 mi SSW 4.6 mph - N/A   Overcast
10:54 PM 35.1 °F 32.2 °F 34.7 °F 99% 29.65 in 7.0 mi SW 3.5 mph - N/A   Overcast
11:14 PM 34.7 °F 31.8 °F 34.3 °F 99% 29.65 in 7.0 mi SW 3.5 mph - N/A   Overcast
11:34 PM 34.7 °F 30.6 °F 34.2 °F 98% 29.65 in 7.0 mi SW 4.6 mph - N/A   Overcast
11:54 PM 34.3 °F 29.2 °F 34.0 °F 99% 29.65 in 7.0 mi WSW 5.8 mph - N/A   Overcast